Arcola, Louisiana
Current Conditions -  °F | °C
As of 2:53 PM on Saturday 20 Dec 2014 (Local Time) from KMCB Reporting Station
Overcast Overcast  
Wind Chill: 10°   Ceiling: 1000
Heat Index: 10°   Visibility: 10mi
Dew Point:   Wind: 8mph
Humidity: 80%   Direction: 40°NE
Pressure: 30.13"   Gusts: NA
Location:  30.7896°N, 90.5314°W
Report Text: KMCB 202053Z AUTO 04007KT 10SM OVC010 10/07 A3013 RMK AO2 SLP203 T01000067 56013
Loading
Personal Weather Stations






























Interactive Weather Map New forecast layout! Learn more

10-Day Weather Forecast

Advertisements
Track Severe Weather on mobile